Jeremie Airport


Codes: MTJE/JEE
Name: Jeremie Airport
City: Jeremie
Country: Haiti
Elevation: 147 ft.
Wikipedia:

Photos at Jeremie Airport


   Photos courtesy of SpottingLog. You can add your own sightings and photos by signing up for a free trial today.



No photos found.

Weather at Jeremie Airport


Time (UTC)DescriptionTempratureWindCloud coverageVisibilityPressureHumidity
16-Jun-2024 12:00Light Rain27°C2 mph, S100%10000m1014hPa80%
16-Jun-2024 15:00Overcast Clouds29°C2 mph, N100%10000m1015hPa72%
16-Jun-2024 18:00Light Rain30°C7 mph, NE100%10000m1014hPa72%
16-Jun-2024 21:00Light Rain29°C4 mph, N100%10000m1013hPa74%
17-Jun-2024 00:00Light Rain28°C4 mph, NE100%10000m1014hPa81%
17-Jun-2024 03:00Light Rain27°C2 mph, NE100%10000m1014hPa82%
17-Jun-2024 06:00Overcast Clouds27°C2 mph, E100%10000m1013hPa82%
17-Jun-2024 09:00Overcast Clouds26°C2 mph, S100%10000m1012hPa82%
17-Jun-2024 12:00Overcast Clouds28°C4 mph, SW100%10000m1013hPa77%
17-Jun-2024 15:00Overcast Clouds30°C4 mph, NW98%10000m1013hPa66%
17-Jun-2024 18:00Light Rain30°C4 mph, NW99%10000m1012hPa70%
17-Jun-2024 21:00Moderate Rain29°C4 mph, NW90%10000m1011hPa76%
18-Jun-2024 00:00Moderate Rain27°C2 mph, N82%10000m1012hPa83%
18-Jun-2024 03:00Moderate Rain27°C2 mph, NE99%10000m1014hPa82%
18-Jun-2024 06:00Moderate Rain26°C0 mph, W98%10000m1012hPa83%
18-Jun-2024 09:00Light Rain26°C0 mph, S100%10000m1012hPa82%
18-Jun-2024 12:00Light Rain27°C0 mph, E82%10000m1012hPa80%
18-Jun-2024 15:00Light Rain30°C2 mph, NW39%10000m1012hPa69%
18-Jun-2024 18:00Moderate Rain29°C0 mph, N39%10000m1012hPa74%
18-Jun-2024 21:00Moderate Rain28°C7 mph, SW67%10000m1010hPa81%
19-Jun-2024 00:00Light Rain27°C0 mph, NW77%10000m1011hPa82%
19-Jun-2024 03:00Light Rain26°C2 mph, SE100%10000m1012hPa81%
19-Jun-2024 06:00Light Rain26°C4 mph, S94%10000m1011hPa82%
19-Jun-2024 09:00Broken Clouds26°C4 mph, S67%10000m1012hPa81%
19-Jun-2024 12:00Broken Clouds26°C2 mph, SE72%10000m1012hPa77%
19-Jun-2024 15:00Overcast Clouds29°C4 mph, NE97%10000m1013hPa64%
19-Jun-2024 18:00Light Rain30°C4 mph, NE87%10000m1012hPa68%
19-Jun-2024 21:00Moderate Rain28°C2 mph, W94%10000m1011hPa78%
20-Jun-2024 00:00Light Rain27°C0 mph, SE97%10000m1012hPa81%
20-Jun-2024 03:00Light Rain27°C2 mph, SE92%10000m1013hPa78%
20-Jun-2024 06:00Light Rain26°C4 mph, SE96%10000m1012hPa78%
20-Jun-2024 09:00Overcast Clouds26°C4 mph, SW100%10000m1012hPa77%
20-Jun-2024 12:00Overcast Clouds27°C4 mph, S100%10000m1014hPa76%
20-Jun-2024 15:00Light Rain27°C4 mph, SE100%10000m1016hPa78%
20-Jun-2024 18:00Light Rain27°C2 mph, SW100%10000m1015hPa72%
20-Jun-2024 21:00Overcast Clouds26°C9 mph, NE100%10000m1014hPa78%
21-Jun-2024 00:00Overcast Clouds26°C9 mph, NE99%10000m1015hPa78%
21-Jun-2024 03:00Overcast Clouds26°C7 mph, E99%10000m1015hPa84%
21-Jun-2024 06:00Overcast Clouds26°C7 mph, SE100%10000m1014hPa82%
21-Jun-2024 09:00Overcast Clouds26°C4 mph, SE100%10000m1013hPa78%